• Join FlightAware (Why Join?)
  • Login
  • US Flag 
05:10PM EDT


 

Airport Tracker/Info


-or-


 

Live Flight TrackerFlight Track Log ✈ N9885W ✈ 22-Apr-2013 ✈ T94 - T65

Flight Track Log - Related Links

Times and Time Zones

All times are in EDT time to prevent confusion due to time zone crossing. See the N9885W flight status page for this flight to view local times or setup timezone preferences in your user account.

Time Position Orientation Groundspeed Altitude Reporting Facility
EDT Latitude Longitude Course Direction KTS MPH feet Rate Location/Type
07:25PM 29.0508 -98.4247 173° South 73 84 6,500  Level Houston Center
07:26PM 29.0272 -98.4206 171° South 77 89 6,700 180 Climbing Houston Center
07:28PM 29.0022 -98.4111 162° South 86 99 7,000 300 Climbing Houston Center
07:29PM 28.9778 -98.4086 175° South 78 90 7,400 240 Climbing Houston Center
07:30PM 28.9547 -98.4042 170° South 82 94 7,600 180 Climbing Houston Center
07:31PM 29.3353 -98.4331 173° South  Level Estimated
07:31PM 28.9339 -98.3989 167° South 78 90 7,800  Level Houston Center
07:32PM 28.9092 -98.3950 172° South 87 100 8,000 180 Climbing Houston Center
07:33PM 28.8842 -98.3908 172° South 88 101 8,200 120 Climbing Houston Center
07:34PM 28.8647 -98.3856 167° South 84 97 8,300 60 Climbing Houston Center
07:35PM 28.8428 -98.3828 174° South 80 92 8,400 180 Climbing Houston Center
07:36PM 28.8131 -98.3758 168° South 89 102 8,700 120 Climbing Houston Center
07:37PM 28.7911 -98.3778 184° South 82 94 8,700 60 Level Houston Center
07:38PM 28.7672 -98.3739 172° South 84 97 8,900 120 Climbing Houston Center
07:39PM 28.7433 -98.3706 173° South 87 100 9,000 60 Climbing Houston Center
07:40PM 28.7200 -98.3667 172° South 86 99 9,100 60 Climbing Houston Center
07:41PM 28.6942 -98.3622 171° South 91 105 9,200 60 Climbing Houston Center
07:42PM 28.6703 -98.3600 175° South 89 102 9,300  Climbing Houston Center
07:43PM 28.6386 -98.3550 172° South 93 107 9,300 -120 Level Houston Center
07:44PM 28.6103 -98.3475 167° South 99 114 9,100 -180 Descending Houston Center
07:45PM 28.5831 -98.3389 164° South 101 116 9,000 -120 Descending Houston Center
07:46PM 28.5547 -98.3358 175° South 102 117 8,900 -180 Descending Houston Center
07:47PM 28.5272 -98.3350 178° South 101 116 8,700 -360 Descending Houston Center
07:48PM 28.4961 -98.3344 179° South 104 120 8,200 -540 Descending Houston Center
07:49PM 28.4617 -98.3331 178° South 105 121 7,600 -360 Descending Houston Center
07:50PM 28.4361 -98.3283 171° South 101 116 7,500 -120 Descending Houston Center
07:51PM 28.4092 -98.3144 156° South 101 116 7,400 -60 Descending Houston Center
07:52PM 28.3836 -98.3117 175° South 98 113 7,400 -60 Level Houston Center
07:53PM 28.3597 -98.3097 176° South 93 107 7,300 -60 Descending Houston Center
07:54PM 28.3361 -98.3039 168° South 89 102 7,300  Level Houston Center
07:55PM 28.3131 -98.3000 172° South 87 100 7,300  Level Houston Center
07:56PM 28.2858 -98.2922 166° South 85 98 7,300 -60 Level Houston Center
07:58PM 28.2628 -98.2875 170° South 84 97 7,200  Descending Houston Center
07:59PM 28.2389 -98.2828 170° South 85 98 7,300  Climbing Houston Center
08:00PM 28.2172 -98.2786 170° South 83 96 7,200 -60 Descending Houston Center
08:01PM 28.1939 -98.2742 170° South 83 96 7,200  Level Houston Center
08:02PM 28.1711 -98.2731 178° South 83 96 7,200 -60 Level Houston Center
08:03PM 28.1433 -98.2675 170° South 84 97 7,100  Descending Houston Center
08:04PM 28.1197 -98.2633 171° South 84 97 7,200  Climbing Houston Center
08:05PM 28.0978 -98.2611 175° South 82 94 7,200 -60 Level Houston Center
08:06PM 28.0756 -98.2581 173° South 80 92 7,100  Descending Houston Center
08:07PM 28.0522 -98.2558 175° South 83 96 7,200  Climbing Houston Center
08:08PM 28.0297 -98.2569 182° South 82 94 7,200 -60 Level Houston Center
08:09PM 28.0053 -98.2544 175° South 85 98 7,100 -60 Descending Houston Center
08:10PM 27.9778 -98.2594 189° South 86 99 7,100  Level Houston Center
08:11PM 27.9550 -98.2600 181° South 83 96 7,100  Level Houston Center
08:12PM 27.9325 -98.2536 166° South 82 94 7,100  Level Houston Center
08:13PM 27.9108 -98.2489 169° South 81 93 7,100  Level Houston Center
08:14PM 27.8872 -98.2453 172° South 82 94 7,200 -60 Climbing Houston Center
08:15PM 27.8619 -98.2431 176° South 85 98 7,000 -120 Descending Houston Center
08:16PM 27.8350 -98.2378 170° South 87 100 7,000  Level Houston Center
08:17PM 27.8128 -98.2353 174° South 89 102 7,100 -60 Climbing Houston Center
08:18PM 27.7836 -98.2342 178° South 88 101 6,900 -60 Descending Houston Center
08:19PM 27.7594 -98.2333 178° South 88 101 7,000  Climbing Houston Center
08:20PM 27.7372 -98.2306 174° South 85 98 7,000  Level Houston Center
08:21PM 27.7156 -98.2258 169° South 82 94 7,000  Level Houston Center
08:22PM 27.6914 -98.2222 172° South 83 96 7,000  Level Houston Center
08:23PM 27.6675 -98.2175 170° South 85 98 7,000  Level Houston Center
08:24PM 27.6394 -98.2117 170° South 85 98 7,000  Level Houston Center
08:25PM 27.6164 -98.2103 177° South 84 97 7,000  Level Houston Center
08:26PM 27.5925 -98.2058 171° South 85 98 7,000  Level Houston Center
08:27PM 27.5689 -98.2025 173° South 86 99 7,000  Level Houston Center
08:28PM 27.5447 -98.2003 175° South 86 99 7,000  Level Houston Center
08:29PM 27.5203 -98.1989 177° South 86 99 7,100 -60 Climbing Houston Center
08:30PM 27.4958 -98.1933 169° South 87 100 6,900 -120 Descending Houston Center
08:32PM 27.4669 -98.1892 173° South 88 101 6,900  Level Houston Center
08:33PM 27.4425 -98.1917 185° South 87 100 7,000  Climbing Houston Center
08:34PM 27.4197 -98.1914 179° South 85 98 6,900 -120 Descending Houston Center
08:35PM 27.3961 -98.1869 171° South 85 98 6,800  Descending Houston Center
08:36PM 27.3711 -98.1797 166° South 88 101 6,900  Climbing Houston Center
08:37PM 27.3467 -98.1764 173° South 88 101 6,900  Level Houston Center
08:38PM 27.3219 -98.1733 174° South 88 101 6,900  Level Houston Center
08:39PM 27.2931 -98.1664 168° South 89 102 6,900  Level Houston Center
08:40PM 27.2689 -98.1594 166° South 89 102 7,000  Climbing Houston Center
08:41PM 27.2442 -98.1567 174° South 88 101 7,000  Level Houston Center
08:42PM 27.2194 -98.1531 173° South 88 101 7,000  Level Houston Center
08:43PM 27.1939 -98.1475 169° South 90 104 7,000  Level Houston Center
08:44PM 27.1683 -98.1386 163° South 93 107 7,000  Level Houston Center
08:45PM 27.1411 -98.1267 159° South 92 106 7,000 -60 Level Houston Center
08:46PM 27.1158 -98.1217 170° South 90 104 6,900  Descending Houston Center
08:47PM 27.0922 -98.1164 169° South 89 102 7,100  Climbing Houston Center
08:48PM 27.0656 -98.1139 175° South 90 104 7,000 -60 Descending Houston Center
08:49PM 27.0400 -98.1139 180° South 92 106 7,000  Level Houston Center
08:50PM 27.0122 -98.1167 185° South 97 112 7,000  Level Houston Center
08:51PM 26.9883 -98.1158 178° South 91 105 7,100  Climbing Houston Center
08:52PM 26.9647 -98.1097 167° South 88 101 7,000 -60 Descending Houston Center
08:53PM 26.9336 -98.1008 166° South 95 109 7,000 60 Level Houston Center
08:54PM 26.9239 -98.0947 151° Southeast 94 108 7,100 60 Climbing Houston Center
08:54PM 26.9139 -98.0850 139° Southeast 90 104 7,100 -120 Level Houston Center
08:55PM 26.9031 -98.0786 152° Southeast 86 99 7,000 -120 Descending Houston Center
08:55PM 26.8914 -98.0742 161° South 90 104 7,000 180 Level Houston Center
08:56PM 26.8797 -98.0744 181° South 95 109 7,200 180 Climbing Houston Center
08:56PM 26.8669 -98.0725 172° South 88 101 7,200 60 Level Houston Center
08:57PM 26.8539 -98.0708 174° South 87 100 7,300 240 Climbing Houston Center
08:57PM 26.8411 -98.0683 170° South 85 98 7,500 240 Climbing Houston Center
08:58PM 26.8344 -98.0642 151° Southeast 84 97 7,600 60 Climbing Houston Center
08:58PM 26.8183 -98.0592 165° South 89 102 7,600  Level Houston Center
08:59PM 26.8086 -98.0603 186° South 88 101 7,600  Level Houston Center
08:59PM 26.7911 -98.0631 188° South 91 105 7,600  Level Houston Center
09:00PM 26.7817 -98.0639 185° South 91 105 7,600  Level Houston Center
09:00PM 26.7633 -98.0611 172° South 94 108 7,600  Level Houston Center
09:01PM 26.7517 -98.0586 169° South 95 109 7,600  Level Houston Center
09:01PM 26.7406 -98.0531 156° South 91 105 7,600  Level Houston Center
09:02PM 26.7278 -98.0522 177° South 90 104 7,600  Level Houston Center
09:02PM 26.7153 -98.0464 157° South 87 100 7,600  Level Houston Center
09:03PM 26.7061 -98.0456 175° South 86 99 7,600 60 Level Houston Center
09:03PM 26.6892 -98.0453 179° South 92 106 7,700 60 Climbing Houston Center
09:04PM 26.6808 -98.0444 175° South 89 102 7,700  Level Houston Center
09:04PM 26.6642 -98.0447 181° South 91 105 7,700  Level Houston Center
09:05PM 26.6533 -98.0433 173° South 91 105 7,700 -120 Level Houston Center
09:05PM 26.6372 -98.0417 175° South 91 105 7,600 -120 Descending Houston Center
09:06PM 26.6281 -98.0419 182° South 94 108 7,600  Level Houston Center
09:06PM 26.6092 -98.0392 173° South 98 113 7,600 -120 Level Houston Center
09:07PM 26.6000 -98.0361 163° South 100 115 7,500 -120 Descending Houston Center
09:08PM 26.5833 -98.0336 172° South 95 109 7,500  Level Houston Center
09:08PM 26.5722 -98.0328 176° South 93 107 7,500  Level Houston Center
09:09PM 26.5564 -98.0317 176° South 91 105 7,500  Level Houston Center
09:09PM 26.5469 -98.0314 178° South 90 104 7,500  Level Houston Center
09:10PM 26.5308 -98.0253 161° South 94 108 7,500 -120 Level Houston Center
09:10PM 26.5228 -98.0228 164° South 92 106 7,400 -240 Descending Houston Center
09:11PM 26.5044 -98.0208 175° South 96 110 7,300 -480 Descending Houston Center
09:12PM 26.4772 -98.0225 183° South 92 106 6,600 -660 Descending Houston Center
09:12PM 26.4706 -98.0250 199° South 94 108 6,500 -600 Descending Houston Center
09:13PM 26.4533 -98.0258 182° South 88 101 6,000 -720 Descending Houston Center
09:13PM 26.4475 -98.0258 180° South 84 97 5,800 -600 Descending Houston Center
09:14PM 26.4300 -98.0261 181° South 84 97 5,400 -600 Descending Houston Center
09:15PM 26.4081 -98.0258 179° South 74 85 4,800 -660 Descending Houston Center
09:16PM 26.3817 -98.0203 169° South 73 84 4,000 -600 Descending Houston Center
09:17PM 26.3664 -98.0200 179° South 77 89 3,600 -600 Descending Houston Center
09:18PM 26.3478 -98.0178 174° South 89 102 3,100 -540 Descending Houston Center
09:18PM 26.3436 -98.0183 187° South 82 94 3,000 -540 Descending Houston Center
09:19PM 26.3219 -98.0142 170° South 71 82 2,400 -540 Descending Houston Center
09:20PM 26.3044 -98.0081 163° South 70 81 2,000 -180 Descending Houston Center
09:21PM 26.2842 -98.0019 165° South 70 81 2,100 -60 Climbing Houston Center
09:22PM 26.2622 -97.9944 163° South 79 91 1,900 -300 Descending Houston Center
09:23PM 26.2400 -97.9833 156° South 86 99 1,500 -360 Descending Houston Center
09:24PM 26.2194 -97.9828 179° South 85 98 1,200 -420 Descending Houston Center
09:25PM 26.2047 -97.9958 219° Southwest 80 92 700 -420 Descending Houston Center
09:26PM 26.1886 -97.9850 149° Southeast 57 66 400 -300 Descending Houston Center